< < Back
Terminal Aerodrome Forecast


Current Version              Previous Versions:   1  2  3  4  5  6  7  8  9  

Terminal Aerodrome Forecast

107
FTUS42 KCAE 261005 AAB
TAFAGS
TAF AMD
KAGS 261005Z 2610/2706 00000KT 6SM BR SCT006
      TEMPO 2610/2612 4SM BR
     FM261300 VRB03KT P6SM SCT250
     FM261700 11006KT P6SM SCT050 SCT250
     FM270100 VRB03KT P6SM FEW050 SCT250=



Latest METAR

105
SAUS70 KWBC 261000 RRJ
MTRAGS
METAR KAGS 260953Z AUTO 00000KT 7SM SCT050 21/20 A3010 RMK AO2 SLP189
T02060200


USA.gov is the U.S. government's official web portal to all federal, state and local government web resources and services.